sensor_id;sensor_type;location;lat;lon;timestamp;pressure;altitude;pressure_sealevel;temperature;humidity
19672;BME280;9983;51.114;13.788;2022-09-09T00:03:31;98997.91;;;16.20;100.00
19672;BME280;9983;51.114;13.788;2022-09-09T00:14:13;98995.28;;;15.88;100.00
19672;BME280;9983;51.114;13.788;2022-09-09T00:19:33;98998.75;;;15.96;100.00
19672;BME280;9983;51.114;13.788;2022-09-09T00:24:51;98985.03;;;16.15;100.00
19672;BME280;9983;51.114;13.788;2022-09-09T00:30:11;98992.41;;;15.83;100.00
19672;BME280;9983;51.114;13.788;2022-09-09T00:40:32;98995.72;;;15.85;100.00
19672;BME280;9983;51.114;13.788;2022-09-09T00:50:53;98990.31;;;15.85;100.00
19672;BME280;9983;51.114;13.788;2022-09-09T01:01:12;98986.91;;;15.34;100.00
19672;BME280;9983;51.114;13.788;2022-09-09T01:06:21;98991.69;;;15.70;100.00
19672;BME280;9983;51.114;13.788;2022-09-09T01:11:32;98990.22;;;15.36;100.00
19672;BME280;9983;51.114;13.788;2022-09-09T01:16:36;98999.47;;;15.22;100.00
19672;BME280;9983;51.114;13.788;2022-09-09T01:21:47;99000.59;;;15.39;100.00
19672;BME280;9983;51.114;13.788;2022-09-09T01:26:54;98996.50;;;15.30;100.00
19672;BME280;9983;51.114;13.788;2022-09-09T01:32:00;99004.28;;;14.62;100.00
19672;BME280;9983;51.114;13.788;2022-09-09T01:37:03;98997.59;;;15.22;100.00
19672;BME280;9983;51.114;13.788;2022-09-09T01:42:08;98985.72;;;15.23;100.00
19672;BME280;9983;51.114;13.788;2022-09-09T01:47:09;98989.28;;;15.17;100.00
19672;BME280;9983;51.114;13.788;2022-09-09T01:52:09;98986.22;;;15.13;100.00
19672;BME280;9983;51.114;13.788;2022-09-09T01:57:26;98985.22;;;15.01;100.00
19672;BME280;9983;51.114;13.788;2022-09-09T02:03:00;98984.72;;;14.73;100.00
19672;BME280;9983;51.114;13.788;2022-09-09T02:13:12;98978.44;;;15.24;100.00
19672;BME280;9983;51.114;13.788;2022-09-09T02:18:17;98973.75;;;15.12;100.00
19672;BME280;9983;51.114;13.788;2022-09-09T02:23:21;98997.97;;;14.88;100.00
19672;BME280;9983;51.114;13.788;2022-09-09T02:28:25;98988.78;;;14.95;100.00
19672;BME280;9983;51.114;13.788;2022-09-09T02:33:29;98990.22;;;14.47;100.00
19672;BME280;9983;51.114;13.788;2022-09-09T02:38:36;98995.06;;;14.82;100.00
19672;BME280;9983;51.114;13.788;2022-09-09T02:43:39;98994.69;;;14.66;100.00
19672;BME280;9983;51.114;13.788;2022-09-09T02:49:04;98994.34;;;14.56;100.00
19672;BME280;9983;51.114;13.788;2022-09-09T02:54:26;98997.66;;;14.31;100.00
19672;BME280;9983;51.114;13.788;2022-09-09T02:59:28;98990.22;;;14.40;100.00
19672;BME280;9983;51.114;13.788;2022-09-09T03:04:30;98988.50;;;14.59;100.00
19672;BME280;9983;51.114;13.788;2022-09-09T03:09:31;98997.59;;;14.71;100.00
19672;BME280;9983;51.114;13.788;2022-09-09T03:14:32;98998.66;;;14.57;100.00
19672;BME280;9983;51.114;13.788;2022-09-09T03:19:33;98996.66;;;14.19;100.00
19672;BME280;9983;51.114;13.788;2022-09-09T03:24:36;98992.44;;;14.63;100.00
19672;BME280;9983;51.114;13.788;2022-09-09T03:29:36;99008.44;;;14.58;100.00
19672;BME280;9983;51.114;13.788;2022-09-09T03:34:36;98999.78;;;13.63;100.00
19672;BME280;9983;51.114;13.788;2022-09-09T03:39:39;98996.84;;;14.44;100.00
19672;BME280;9983;51.114;13.788;2022-09-09T03:44:40;98998.28;;;14.33;100.00
19672;BME280;9983;51.114;13.788;2022-09-09T03:49:41;98994.34;;;14.42;100.00
19672;BME280;9983;51.114;13.788;2022-09-09T03:54:42;98986.91;;;14.45;100.00
19672;BME280;9983;51.114;13.788;2022-09-09T03:59:43;98991.50;;;14.11;100.00
19672;BME280;9983;51.114;13.788;2022-09-09T04:04:43;98996.03;;;14.17;100.00
19672;BME280;9983;51.114;13.788;2022-09-09T04:09:43;99001.03;;;13.94;100.00
19672;BME280;9983;51.114;13.788;2022-09-09T04:14:43;99003.50;;;14.15;100.00
19672;BME280;9983;51.114;13.788;2022-09-09T04:19:44;99011.81;;;13.81;100.00
19672;BME280;9983;51.114;13.788;2022-09-09T04:24:44;99006.44;;;13.81;100.00
19672;BME280;9983;51.114;13.788;2022-09-09T04:29:44;99006.22;;;14.02;100.00
19672;BME280;9983;51.114;13.788;2022-09-09T04:34:44;99011.78;;;13.54;100.00
19672;BME280;9983;51.114;13.788;2022-09-09T04:39:45;99013.66;;;13.74;100.00
19672;BME280;9983;51.114;13.788;2022-09-09T04:44:45;99008.50;;;13.92;100.00
19672;BME280;9983;51.114;13.788;2022-09-09T04:49:45;99007.25;;;13.61;100.00
19672;BME280;9983;51.114;13.788;2022-09-09T04:54:46;99004.31;;;13.43;100.00
19672;BME280;9983;51.114;13.788;2022-09-09T04:59:46;99010.97;;;14.00;100.00
19672;BME280;9983;51.114;13.788;2022-09-09T05:04:48;99011.38;;;14.10;100.00
19672;BME280;9983;51.114;13.788;2022-09-09T05:09:49;99018.81;;;13.42;100.00
19672;BME280;9983;51.114;13.788;2022-09-09T05:14:50;99014.09;;;13.97;100.00
19672;BME280;9983;51.114;13.788;2022-09-09T05:19:50;99014.72;;;14.12;100.00
19672;BME280;9983;51.114;13.788;2022-09-09T05:24:50;99020.09;;;14.12;100.00
19672;BME280;9983;51.114;13.788;2022-09-09T05:29:51;99016.72;;;14.63;100.00
19672;BME280;9983;51.114;13.788;2022-09-09T05:34:52;99022.94;;;14.57;100.00
19672;BME280;9983;51.114;13.788;2022-09-09T05:39:52;99024.19;;;14.61;100.00
19672;BME280;9983;51.114;13.788;2022-09-09T05:44:53;99039.97;;;14.64;100.00
19672;BME280;9983;51.114;13.788;2022-09-09T05:49:54;99028.72;;;14.80;100.00
19672;BME280;9983;51.114;13.788;2022-09-09T05:54:55;99029.91;;;14.97;100.00
19672;BME280;9983;51.114;13.788;2022-09-09T05:59:56;99040.88;;;15.02;100.00
19672;BME280;9983;51.114;13.788;2022-09-09T06:04:57;99055.59;;;15.06;100.00
19672;BME280;9983;51.114;13.788;2022-09-09T06:09:57;99046.78;;;15.31;100.00
19672;BME280;9983;51.114;13.788;2022-09-09T06:14:59;99054.69;;;15.26;100.00
19672;BME280;9983;51.114;13.788;2022-09-09T06:19:59;99042.38;;;15.74;100.00
19672;BME280;9983;51.114;13.788;2022-09-09T06:24:59;99049.78;;;15.85;100.00
19672;BME280;9983;51.114;13.788;2022-09-09T06:30:01;99052.84;;;15.96;100.00
19672;BME280;9983;51.114;13.788;2022-09-09T06:35:03;99056.94;;;16.05;100.00
19672;BME280;9983;51.114;13.788;2022-09-09T06:40:03;99054.09;;;16.18;100.00
19672;BME280;9983;51.114;13.788;2022-09-09T06:45:04;99049.44;;;16.25;100.00
19672;BME280;9983;51.114;13.788;2022-09-09T06:50:05;99038.38;;;16.51;100.00
19672;BME280;9983;51.114;13.788;2022-09-09T06:55:07;99044.91;;;16.68;100.00
19672;BME280;9983;51.114;13.788;2022-09-09T07:00:08;99046.28;;;16.96;100.00
19672;BME280;9983;51.114;13.788;2022-09-09T07:05:08;99043.06;;;17.17;100.00
19672;BME280;9983;51.114;13.788;2022-09-09T07:10:09;99039.81;;;17.45;100.00
19672;BME280;9983;51.114;13.788;2022-09-09T07:15:09;99038.31;;;17.61;100.00
19672;BME280;9983;51.114;13.788;2022-09-09T07:20:10;99046.38;;;17.97;100.00
19672;BME280;9983;51.114;13.788;2022-09-09T07:25:10;99043.31;;;18.29;100.00
19672;BME280;9983;51.114;13.788;2022-09-09T07:30:11;99038.97;;;18.51;100.00
19672;BME280;9983;51.114;13.788;2022-09-09T07:35:12;99046.06;;;18.75;100.00
19672;BME280;9983;51.114;13.788;2022-09-09T07:40:12;99048.53;;;18.88;100.00
19672;BME280;9983;51.114;13.788;2022-09-09T07:45:13;99054.06;;;18.93;100.00
19672;BME280;9983;51.114;13.788;2022-09-09T07:50:14;99051.50;;;19.27;100.00
19672;BME280;9983;51.114;13.788;2022-09-09T07:55:15;99055.81;;;19.51;100.00
19672;BME280;9983;51.114;13.788;2022-09-09T08:00:15;99049.78;;;19.78;100.00
19672;BME280;9983;51.114;13.788;2022-09-09T08:05:15;99052.78;;;20.09;100.00
19672;BME280;9983;51.114;13.788;2022-09-09T08:10:16;99066.69;;;20.41;100.00
19672;BME280;9983;51.114;13.788;2022-09-09T08:15:17;99054.59;;;20.71;100.00
19672;BME280;9983;51.114;13.788;2022-09-09T08:20:18;99058.22;;;20.60;92.46
19672;BME280;9983;51.114;13.788;2022-09-09T08:25:18;99064.53;;;20.43;90.65
19672;BME280;9983;51.114;13.788;2022-09-09T08:30:18;99073.00;;;21.02;91.48
19672;BME280;9983;51.114;13.788;2022-09-09T08:35:19;99068.28;;;21.36;92.70
19672;BME280;9983;51.114;13.788;2022-09-09T08:40:27;99075.81;;;21.51;92.26
19672;BME280;9983;51.114;13.788;2022-09-09T08:45:33;99085.88;;;21.24;89.78
19672;BME280;9983;51.114;13.788;2022-09-09T08:50:36;99073.91;;;21.73;90.46
19672;BME280;9983;51.114;13.788;2022-09-09T09:06:33;99081.66;;;22.45;91.92
19672;BME280;9983;51.114;13.788;2022-09-09T09:11:44;99076.47;;;22.12;85.75
19672;BME280;9983;51.114;13.788;2022-09-09T09:16:52;99078.81;;;21.76;87.27
19672;BME280;9983;51.114;13.788;2022-09-09T09:22:02;99092.34;;;22.15;87.37
19672;BME280;9983;51.114;13.788;2022-09-09T09:27:12;99100.75;;;21.38;87.26
19672;BME280;9983;51.114;13.788;2022-09-09T09:32:16;99110.97;;;21.26;90.78
19672;BME280;9983;51.114;13.788;2022-09-09T09:37:26;99113.06;;;21.40;95.39
19672;BME280;9983;51.114;13.788;2022-09-09T09:42:28;99123.16;;;21.40;100.00
19672;BME280;9983;51.114;13.788;2022-09-09T09:47:28;99111.78;;;21.70;100.00
19672;BME280;9983;51.114;13.788;2022-09-09T09:52:30;99110.56;;;21.82;100.00
19672;BME280;9983;51.114;13.788;2022-09-09T09:57:32;99110.25;;;22.01;100.00
19672;BME280;9983;51.114;13.788;2022-09-09T10:02:38;99096.66;;;22.11;100.00
19672;BME280;9983;51.114;13.788;2022-09-09T10:07:39;99095.13;;;22.20;100.00
19672;BME280;9983;51.114;13.788;2022-09-09T10:12:58;99090.88;;;22.34;100.00
19672;BME280;9983;51.114;13.788;2022-09-09T10:18:12;99085.78;;;22.48;99.85
19672;BME280;9983;51.114;13.788;2022-09-09T10:29:14;99083.41;;;22.56;92.60
19672;BME280;9983;51.114;13.788;2022-09-09T10:39:40;99077.78;;;23.20;90.93
19672;BME280;9983;51.114;13.788;2022-09-09T10:45:07;99070.31;;;23.63;87.69
19672;BME280;9983;51.114;13.788;2022-09-09T10:50:42;99059.47;;;23.93;86.05
19672;BME280;9983;51.114;13.788;2022-09-09T10:55:51;99056.75;;;24.29;74.71
19672;BME280;9983;51.114;13.788;2022-09-09T11:00:56;99051.75;;;25.02;74.88
19672;BME280;9983;51.114;13.788;2022-09-09T11:06:05;99051.94;;;25.25;67.67
19672;BME280;9983;51.114;13.788;2022-09-09T11:11:39;99038.63;;;25.97;67.96
19672;BME280;9983;51.114;13.788;2022-09-09T11:16:47;99043.38;;;25.32;70.61
19672;BME280;9983;51.114;13.788;2022-09-09T11:21:50;99038.59;;;24.99;72.18
19672;BME280;9983;51.114;13.788;2022-09-09T11:26:59;99038.59;;;24.78;74.05
19672;BME280;9983;51.114;13.788;2022-09-09T11:38:12;99037.81;;;23.97;87.18
19672;BME280;9983;51.114;13.788;2022-09-09T11:43:14;99038.88;;;23.70;94.15
19672;BME280;9983;51.114;13.788;2022-09-09T11:48:34;99038.09;;;24.00;96.29
19672;BME280;9983;51.114;13.788;2022-09-09T11:53:48;99042.97;;;23.63;95.22
19672;BME280;9983;51.114;13.788;2022-09-09T11:58:58;99038.47;;;23.36;100.00
19672;BME280;9983;51.114;13.788;2022-09-09T12:09:33;99017.41;;;23.37;100.00
19672;BME280;9983;51.114;13.788;2022-09-09T12:14:59;99013.88;;;26.02;91.85
19672;BME280;9983;51.114;13.788;2022-09-09T12:20:11;99009.09;;;26.47;83.75
19672;BME280;9983;51.114;13.788;2022-09-09T12:25:43;98996.28;;;26.66;74.44
19672;BME280;9983;51.114;13.788;2022-09-09T12:31:10;98998.84;;;26.28;71.89
19672;BME280;9983;51.114;13.788;2022-09-09T12:36:20;98994.41;;;25.54;75.87
19672;BME280;9983;51.114;13.788;2022-09-09T12:41:26;99006.22;;;24.95;85.52
19672;BME280;9983;51.114;13.788;2022-09-09T12:46:35;99002.19;;;24.68;92.05
19672;BME280;9983;51.114;13.788;2022-09-09T12:51:36;98981.88;;;25.38;81.88
19672;BME280;9983;51.114;13.788;2022-09-09T12:56:37;98986.16;;;25.54;80.90
19672;BME280;9983;51.114;13.788;2022-09-09T13:01:37;98978.91;;;25.35;76.67
19672;BME280;9983;51.114;13.788;2022-09-09T13:06:38;98968.16;;;25.43;69.03
19672;BME280;9983;51.114;13.788;2022-09-09T13:11:41;98960.97;;;25.52;71.96
19672;BME280;9983;51.114;13.788;2022-09-09T13:16:58;98951.91;;;25.91;70.75
19672;BME280;9983;51.114;13.788;2022-09-09T13:21:59;98957.03;;;26.31;69.60
19672;BME280;9983;51.114;13.788;2022-09-09T13:27:05;98952.63;;;26.59;60.09
19672;BME280;9983;51.114;13.788;2022-09-09T13:32:07;98950.50;;;26.27;61.56
19672;BME280;9983;51.114;13.788;2022-09-09T13:37:30;98946.66;;;26.76;61.63
19672;BME280;9983;51.114;13.788;2022-09-09T13:42:34;98960.44;;;26.47;59.00
19672;BME280;9983;51.114;13.788;2022-09-09T13:47:39;98956.59;;;26.48;60.34
19672;BME280;9983;51.114;13.788;2022-09-09T13:52:39;98961.66;;;26.07;64.77
19672;BME280;9983;51.114;13.788;2022-09-09T13:57:59;98960.19;;;25.86;67.25
19672;BME280;9983;51.114;13.788;2022-09-09T14:03:02;98962.53;;;25.63;69.72
19672;BME280;9983;51.114;13.788;2022-09-09T14:08:04;98946.69;;;25.50;70.47
19672;BME280;9983;51.114;13.788;2022-09-09T14:13:05;98957.78;;;25.35;77.21
19672;BME280;9983;51.114;13.788;2022-09-09T14:18:05;98953.88;;;25.41;78.48
19672;BME280;9983;51.114;13.788;2022-09-09T14:23:09;98945.53;;;25.56;80.25
19672;BME280;9983;51.114;13.788;2022-09-09T14:28:11;98938.00;;;26.11;67.73
19672;BME280;9983;51.114;13.788;2022-09-09T14:33:13;98930.22;;;26.71;67.68
19672;BME280;9983;51.114;13.788;2022-09-09T14:38:14;98926.53;;;26.57;63.97
19672;BME280;9983;51.114;13.788;2022-09-09T14:43:14;98925.34;;;26.63;65.63
19672;BME280;9983;51.114;13.788;2022-09-09T14:48:14;98915.59;;;27.74;63.14
19672;BME280;9983;51.114;13.788;2022-09-09T14:53:16;98911.75;;;29.17;58.09
19672;BME280;9983;51.114;13.788;2022-09-09T14:58:16;98913.44;;;28.91;50.81
19672;BME280;9983;51.114;13.788;2022-09-09T15:03:17;98914.22;;;28.23;51.75
19672;BME280;9983;51.114;13.788;2022-09-09T15:08:17;98915.25;;;31.22;50.69
19672;BME280;9983;51.114;13.788;2022-09-09T15:13:17;98905.69;;;29.65;54.53
19672;BME280;9983;51.114;13.788;2022-09-09T15:18:17;98912.53;;;29.45;57.80
19672;BME280;9983;51.114;13.788;2022-09-09T15:23:18;98908.75;;;28.91;53.99
19672;BME280;9983;51.114;13.788;2022-09-09T15:28:18;98916.13;;;29.68;55.78
19672;BME280;9983;51.114;13.788;2022-09-09T15:33:20;98923.41;;;30.08;49.46
19672;BME280;9983;51.114;13.788;2022-09-09T15:38:21;98912.94;;;31.07;50.57
19672;BME280;9983;51.114;13.788;2022-09-09T15:43:21;98924.09;;;30.45;48.80
19672;BME280;9983;51.114;13.788;2022-09-09T15:48:30;98925.91;;;28.88;55.04
19672;BME280;9983;51.114;13.788;2022-09-09T15:53:31;98918.75;;;28.74;54.47
19672;BME280;9983;51.114;13.788;2022-09-09T15:58:35;98916.72;;;27.73;61.66
19672;BME280;9983;51.114;13.788;2022-09-09T16:03:42;98916.28;;;27.66;56.94
19672;BME280;9983;51.114;13.788;2022-09-09T16:08:45;98930.06;;;26.86;58.38
19672;BME280;9983;51.114;13.788;2022-09-09T16:13:48;98922.78;;;26.48;61.60
19672;BME280;9983;51.114;13.788;2022-09-09T16:18:51;98923.09;;;26.17;60.86
19672;BME280;9983;51.114;13.788;2022-09-09T16:23:52;98921.56;;;25.28;63.38
19672;BME280;9983;51.114;13.788;2022-09-09T16:28:56;98918.88;;;25.23;64.80
19672;BME280;9983;51.114;13.788;2022-09-09T16:33:58;98929.94;;;25.03;66.33
19672;BME280;9983;51.114;13.788;2022-09-09T16:39:00;98929.47;;;24.85;68.70
19672;BME280;9983;51.114;13.788;2022-09-09T16:44:06;98927.25;;;24.98;67.37
19672;BME280;9983;51.114;13.788;2022-09-09T16:49:11;98933.31;;;24.79;69.29
19672;BME280;9983;51.114;13.788;2022-09-09T16:54:13;98943.88;;;24.37;70.06
19672;BME280;9983;51.114;13.788;2022-09-09T16:59:16;98952.91;;;24.12;66.63
19672;BME280;9983;51.114;13.788;2022-09-09T17:04:18;98943.34;;;24.09;67.52
19672;BME280;9983;51.114;13.788;2022-09-09T17:09:21;98943.91;;;24.01;67.35
19672;BME280;9983;51.114;13.788;2022-09-09T17:14:22;98938.97;;;23.73;71.67
19672;BME280;9983;51.114;13.788;2022-09-09T17:19:23;98952.59;;;23.48;75.04
19672;BME280;9983;51.114;13.788;2022-09-09T17:24:24;98949.28;;;23.35;77.45
19672;BME280;9983;51.114;13.788;2022-09-09T17:29:26;98952.03;;;23.30;77.82
19672;BME280;9983;51.114;13.788;2022-09-09T17:34:26;98968.16;;;22.64;82.12
19672;BME280;9983;51.114;13.788;2022-09-09T17:39:27;98957.38;;;22.90;80.78
19672;BME280;9983;51.114;13.788;2022-09-09T17:44:27;98971.91;;;22.48;82.36
19672;BME280;9983;51.114;13.788;2022-09-09T17:49:28;98979.84;;;22.50;78.74
19672;BME280;9983;51.114;13.788;2022-09-09T17:54:29;98991.34;;;22.15;83.15
19672;BME280;9983;51.114;13.788;2022-09-09T17:59:29;98993.47;;;22.08;80.47
19672;BME280;9983;51.114;13.788;2022-09-09T18:04:30;98995.09;;;21.50;87.39
19672;BME280;9983;51.114;13.788;2022-09-09T18:09:31;99017.16;;;21.75;87.35
19672;BME280;9983;51.114;13.788;2022-09-09T18:14:31;99028.91;;;21.49;85.34
19672;BME280;9983;51.114;13.788;2022-09-09T18:19:32;99037.78;;;21.17;92.80
19672;BME280;9983;51.114;13.788;2022-09-09T18:24:32;99042.09;;;21.13;92.01
19672;BME280;9983;51.114;13.788;2022-09-09T18:29:33;99037.22;;;21.15;93.67
19672;BME280;9983;51.114;13.788;2022-09-09T18:34:33;99035.91;;;21.01;93.31
19672;BME280;9983;51.114;13.788;2022-09-09T18:39:33;99042.78;;;20.82;97.29
19672;BME280;9983;51.114;13.788;2022-09-09T18:44:33;99030.41;;;20.96;95.20
19672;BME280;9983;51.114;13.788;2022-09-09T18:49:34;99021.13;;;20.92;95.90
19672;BME280;9983;51.114;13.788;2022-09-09T18:54:34;99027.47;;;20.09;100.00
19672;BME280;9983;51.114;13.788;2022-09-09T18:59:35;99035.31;;;20.56;97.27
19672;BME280;9983;51.114;13.788;2022-09-09T19:04:35;99041.75;;;20.16;97.18
19672;BME280;9983;51.114;13.788;2022-09-09T19:09:35;99033.19;;;20.24;97.06
19672;BME280;9983;51.114;13.788;2022-09-09T19:14:35;99044.34;;;19.78;100.00
19672;BME280;9983;51.114;13.788;2022-09-09T19:19:36;99043.84;;;19.81;100.00
19672;BME280;9983;51.114;13.788;2022-09-09T19:24:37;99042.41;;;19.33;100.00
19672;BME280;9983;51.114;13.788;2022-09-09T19:29:37;99048.22;;;19.82;100.00
19672;BME280;9983;51.114;13.788;2022-09-09T19:34:43;99043.34;;;19.84;100.00
19672;BME280;9983;51.114;13.788;2022-09-09T19:39:43;99057.47;;;19.52;100.00
19672;BME280;9983;51.114;13.788;2022-09-09T19:44:44;99051.09;;;19.35;100.00
19672;BME280;9983;51.114;13.788;2022-09-09T19:49:45;99048.75;;;19.67;100.00
19672;BME280;9983;51.114;13.788;2022-09-09T19:54:46;99052.44;;;18.69;100.00
19672;BME280;9983;51.114;13.788;2022-09-09T19:59:46;99061.06;;;18.78;100.00
19672;BME280;9983;51.114;13.788;2022-09-09T20:04:47;99061.06;;;18.78;100.00
19672;BME280;9983;51.114;13.788;2022-09-09T20:09:47;99064.69;;;18.83;100.00
19672;BME280;9983;51.114;13.788;2022-09-09T20:14:48;99066.44;;;19.13;100.00
19672;BME280;9983;51.114;13.788;2022-09-09T20:19:48;99060.63;;;19.21;100.00
19672;BME280;9983;51.114;13.788;2022-09-09T20:24:48;99065.84;;;19.11;100.00
19672;BME280;9983;51.114;13.788;2022-09-09T20:29:49;99068.84;;;19.49;100.00
19672;BME280;9983;51.114;13.788;2022-09-09T20:34:50;99070.53;;;19.27;100.00
19672;BME280;9983;51.114;13.788;2022-09-09T20:39:50;99080.28;;;19.51;100.00
19672;BME280;9983;51.114;13.788;2022-09-09T20:44:51;99080.97;;;19.47;100.00
19672;BME280;9983;51.114;13.788;2022-09-09T20:49:51;99083.72;;;19.35;100.00
19672;BME280;9983;51.114;13.788;2022-09-09T20:54:52;99077.00;;;19.38;100.00
19672;BME280;9983;51.114;13.788;2022-09-09T20:59:53;99088.78;;;18.91;100.00
19672;BME280;9983;51.114;13.788;2022-09-09T21:04:53;99087.50;;;19.34;100.00
19672;BME280;9983;51.114;13.788;2022-09-09T21:09:53;99102.50;;;18.73;100.00
19672;BME280;9983;51.114;13.788;2022-09-09T21:14:56;99099.13;;;19.18;100.00
19672;BME280;9983;51.114;13.788;2022-09-09T21:19:56;99095.41;;;18.95;100.00
19672;BME280;9983;51.114;13.788;2022-09-09T21:24:57;99093.69;;;19.18;100.00
19672;BME280;9983;51.114;13.788;2022-09-09T21:29:57;99093.50;;;18.84;100.00
19672;BME280;9983;51.114;13.788;2022-09-09T21:34:57;99087.63;;;18.64;100.00
19672;BME280;9983;51.114;13.788;2022-09-09T21:39:58;99085.44;;;19.13;100.00
19672;BME280;9983;51.114;13.788;2022-09-09T21:44:58;99087.97;;;18.91;100.00
19672;BME280;9983;51.114;13.788;2022-09-09T21:49:58;99091.97;;;18.53;100.00
19672;BME280;9983;51.114;13.788;2022-09-09T21:55:00;99091.88;;;18.60;100.00
19672;BME280;9983;51.114;13.788;2022-09-09T22:00:01;99094.06;;;18.51;100.00
19672;BME280;9983;51.114;13.788;2022-09-09T22:05:01;99083.50;;;18.73;100.00
19672;BME280;9983;51.114;13.788;2022-09-09T22:10:02;99076.75;;;18.41;100.00
19672;BME280;9983;51.114;13.788;2022-09-09T22:15:03;99077.28;;;18.19;100.00
19672;BME280;9983;51.114;13.788;2022-09-09T22:20:04;99074.09;;;18.11;100.00
19672;BME280;9983;51.114;13.788;2022-09-09T22:25:06;99069.28;;;17.83;100.00
19672;BME280;9983;51.114;13.788;2022-09-09T22:30:07;99064.19;;;17.75;100.00
19672;BME280;9983;51.114;13.788;2022-09-09T22:35:07;99053.34;;;18.16;100.00
19672;BME280;9983;51.114;13.788;2022-09-09T22:40:08;99059.53;;;17.94;100.00
19672;BME280;9983;51.114;13.788;2022-09-09T22:45:09;99060.38;;;17.16;100.00
19672;BME280;9983;51.114;13.788;2022-09-09T22:50:09;99057.53;;;17.29;100.00
19672;BME280;9983;51.114;13.788;2022-09-09T22:55:10;99052.84;;;17.36;100.00
19672;BME280;9983;51.114;13.788;2022-09-09T23:00:11;99049.06;;;17.37;100.00
19672;BME280;9983;51.114;13.788;2022-09-09T23:05:12;99046.22;;;17.32;100.00
19672;BME280;9983;51.114;13.788;2022-09-09T23:10:13;99040.72;;;16.73;100.00
19672;BME280;9983;51.114;13.788;2022-09-09T23:15:13;99033.47;;;16.85;100.00
19672;BME280;9983;51.114;13.788;2022-09-09T23:20:14;99045.22;;;17.15;100.00
19672;BME280;9983;51.114;13.788;2022-09-09T23:25:14;99034.94;;;17.35;100.00
19672;BME280;9983;51.114;13.788;2022-09-09T23:30:14;99040.25;;;17.12;100.00
19672;BME280;9983;51.114;13.788;2022-09-09T23:35:14;99050.63;;;16.97;100.00
19672;BME280;9983;51.114;13.788;2022-09-09T23:40:15;99043.25;;;17.04;100.00
19672;BME280;9983;51.114;13.788;2022-09-09T23:45:15;99048.78;;;17.27;100.00
19672;BME280;9983;51.114;13.788;2022-09-09T23:50:16;99047.94;;;16.97;100.00
19672;BME280;9983;51.114;13.788;2022-09-09T23:55:16;99059.50;;;16.86;100.00
